Time;durP1;ratioP1;P1;durP2;ratioP2;P2;SDS_P1;SDS_P2;PMS_P1;PMS_P2;Temp;Humidity;BMP_temperature;BMP_pressure;BME280_temperature;BME280_humidity;BME280_pressure;Samples;Min_cycle;Max_cycle;Signal;HPM_P1;HPM_P2
2021/12/16 00:02:06;;;;;;;9.17;7.23;;;13.50;89.10;;;;;;10420609;28;20223;-89
2021/12/16 00:07:27;;;;;;;11.23;7.73;;;13.50;88.80;;;;;;10411334;28;21172;-89
2021/12/16 00:34:01;;;;;;;9.30;8.10;;;13.50;88.60;;;;;;10433904;28;20236;-89
2021/12/16 00:39:07;;;;;;;11.83;7.73;;;13.60;88.30;;;;;;10450777;28;20243;-89
2021/12/16 00:54:30;;;;;;;11.60;7.70;;;13.60;88.40;;;;;;10391815;28;20248;-89
2021/12/16 00:59:37;;;;;;;9.67;7.10;;;13.60;88.20;;;;;;10428771;28;20738;-89
2021/12/16 01:37:24;;;;;;;10.60;7.60;;;13.60;87.70;;;;;;10391009;28;20200;-89
2021/12/16 01:42:49;;;;;;;11.03;7.10;;;13.60;87.70;;;;;;10391248;28;20576;-89
2021/12/16 01:58:11;;;;;;;11.10;7.27;;;13.50;87.90;;;;;;10414901;28;20310;-89
2021/12/16 02:03:15;;;;;;;9.53;6.47;;;13.50;87.90;;;;;;10406444;28;20258;-90
2021/12/16 02:08:28;;;;;;;8.63;6.13;;;13.60;87.80;;;;;;10448477;28;20266;-90
2021/12/16 02:29:31;;;;;;;7.43;6.07;;;13.60;87.20;;;;;;10412141;28;20231;-89
2021/12/16 02:39:55;;;;;;;8.63;6.43;;;13.70;87.10;;;;;;10415099;28;20254;-90
2021/12/16 02:50:09;;;;;;;7.83;6.13;;;13.60;87.30;;;;;;10429386;28;20252;-90
2021/12/16 02:55:15;;;;;;;7.60;5.90;;;13.70;87.10;;;;;;10397494;28;20258;-89
2021/12/16 03:00:18;;;;;;;7.17;5.83;;;13.70;86.90;;;;;;10381505;28;20799;-89
2021/12/16 03:05:22;;;;;;;8.23;5.77;;;13.60;87.00;;;;;;10411770;28;20275;-89
2021/12/16 03:16:36;;;;;;;7.93;5.60;;;13.70;87.00;;;;;;10436020;28;20236;-89
2021/12/16 03:21:16;;;;;;;7.93;6.13;;;13.70;87.00;;;;;;10445798;28;20645;-89
2021/12/16 03:42:35;;;;;;;7.43;6.10;;;13.70;86.90;;;;;;10435297;28;20682;-89
2021/12/16 03:47:47;;;;;;;7.73;5.60;;;13.70;86.80;;;;;;10400965;28;20238;-89
2021/12/16 03:52:51;;;;;;;7.07;5.83;;;13.70;86.70;;;;;;10394206;28;20626;-89
2021/12/16 03:57:54;;;;;;;8.03;6.30;;;13.60;86.90;;;;;;10393507;28;20617;-89
2021/12/16 04:03:02;;;;;;;6.53;5.70;;;13.60;87.30;;;;;;10417740;28;20242;-89
2021/12/16 04:08:10;;;;;;;7.93;5.37;;;13.60;87.20;;;;;;10402766;28;20587;-90
2021/12/16 04:13:23;;;;;;;6.00;5.20;;;13.70;87.00;;;;;;10411950;28;20283;-90
2021/12/16 04:18:31;;;;;;;7.10;5.50;;;13.70;86.90;;;;;;10411283;28;20651;-90
2021/12/16 04:23:55;;;;;;;5.70;4.80;;;13.60;87.10;;;;;;10424540;28;20218;-90
2021/12/16 04:28:59;;;;;;;6.90;5.20;;;13.70;86.90;;;;;;10429469;28;20660;-90
2021/12/16 04:34:04;;;;;;;6.40;5.43;;;13.60;87.20;;;;;;10433989;28;20236;-90
2021/12/16 04:39:15;;;;;;;7.67;5.07;;;13.70;87.20;;;;;;10418916;28;20732;-90
2021/12/16 04:44:20;;;;;;;7.70;5.70;;;13.70;86.90;;;;;;10405865;28;20222;-90
2021/12/16 04:49:23;;;;;;;6.20;5.60;;;13.60;87.20;;;;;;10375517;28;20776;-90
2021/12/16 04:54:29;;;;;;;5.73;5.13;;;13.70;87.10;;;;;;10396080;28;20596;-91
2021/12/16 04:59:35;;;;;;;7.63;5.27;;;13.50;87.80;;;;;;10399541;28;20319;-90
2021/12/16 05:04:41;;;;;;;8.77;6.13;;;13.40;88.00;;;;;;10421866;28;20238;-91
2021/12/16 05:10:03;;;;;;;6.17;5.03;;;13.40;88.00;;;;;;10394088;28;20241;-90
2021/12/16 05:15:13;;;;;;;7.43;5.00;;;13.40;88.30;;;;;;10430395;28;20292;-90
2021/12/16 05:20:30;;;;;;;5.23;4.70;;;13.60;88.00;;;;;;10408884;28;20636;-89
2021/12/16 05:25:45;;;;;;;8.50;6.13;;;13.60;87.40;;;;;;10392278;28;20279;-90
2021/12/16 05:30:49;;;;;;;6.30;4.80;;;13.60;87.60;;;;;;10428217;28;20201;-90
2021/12/16 05:35:53;;;;;;;5.77;4.43;;;13.60;87.50;;;;;;10411034;28;20639;-90
2021/12/16 05:40:58;;;;;;;4.93;4.13;;;13.70;87.20;;;;;;10407371;28;20267;-91
2021/12/16 05:46:14;;;;;;;5.40;4.23;;;13.60;87.80;;;;;;10430955;28;20239;-91
2021/12/16 05:51:25;;;;;;;5.63;4.53;;;13.50;88.10;;;;;;10425123;28;20215;-91
2021/12/16 05:56:31;;;;;;;5.20;4.70;;;13.60;87.70;;;;;;10395008;28;20213;-90
2021/12/16 06:01:37;;;;;;;5.37;4.40;;;13.70;87.40;;;;;;10419351;28;20311;-92
2021/12/16 06:06:39;;;;;;;5.33;4.30;;;13.70;87.60;;;;;;10414192;28;20739;-92
2021/12/16 06:11:44;;;;;;;4.37;3.97;;;13.70;87.50;;;;;;10383177;28;20214;-91
2021/12/16 06:22:33;;;;;;;10.17;5.37;;;13.60;87.80;;;;;;10435587;28;20244;-91
2021/12/16 06:27:37;;;;;;;6.33;4.70;;;13.60;88.00;;;;;;10413564;28;20204;-89
2021/12/16 06:32:39;;;;;;;4.90;4.30;;;13.70;87.80;;;;;;10415366;28;20237;-91
2021/12/16 06:37:42;;;;;;;4.57;3.60;;;13.20;89.30;;;;;;10453157;28;20204;-90
2021/12/16 06:43:02;;;;;;;4.53;4.00;;;13.40;89.20;;;;;;10431379;28;20294;-90
2021/12/16 06:48:12;;;;;;;5.57;4.40;;;13.50;88.50;;;;;;10398441;28;20213;-90
2021/12/16 06:53:23;;;;;;;5.30;4.77;;;13.60;88.40;;;;;;10454958;28;20286;-90
2021/12/16 07:03:44;;;;;;;5.93;5.17;;;13.60;88.30;;;;;;10446703;28;20214;-91
2021/12/16 07:08:49;;;;;;;7.80;5.43;;;13.30;89.80;;;;;;10434919;28;20262;-89
2021/12/16 07:13:58;;;;;;;4.37;3.87;;;13.40;89.40;;;;;;10426491;28;20242;-90
2021/12/16 07:19:01;;;;;;;8.07;6.40;;;13.40;89.70;;;;;;10395571;28;20300;-90
2021/12/16 07:24:06;;;;;;;6.00;4.37;;;13.20;90.30;;;;;;10430396;28;20692;-90
2021/12/16 07:29:10;;;;;;;5.03;4.53;;;13.20;90.00;;;;;;10427538;28;20662;-90
2021/12/16 07:34:13;;;;;;;9.00;6.70;;;13.10;90.40;;;;;;10439583;28;20235;-90
2021/12/16 07:39:19;;;;;;;5.73;4.00;;;13.10;90.50;;;;;;10436504;28;20264;-91
2021/12/16 07:44:21;;;;;;;9.33;6.93;;;13.20;90.30;;;;;;10426171;28;20252;-90
2021/12/16 07:49:27;;;;;;;6.07;4.97;;;12.80;91.40;;;;;;10434282;28;20212;-90
2021/12/16 07:54:30;;;;;;;6.63;4.80;;;12.80;91.30;;;;;;10426575;28;20228;-90
2021/12/16 07:59:34;;;;;;;6.70;5.23;;;13.00;91.20;;;;;;10394553;28;20701;-90
2021/12/16 08:04:41;;;;;;;10.70;7.13;;;12.90;91.10;;;;;;10377331;28;20296;-91
2021/12/16 08:09:44;;;;;;;4.93;4.20;;;12.60;92.20;;;;;;10418762;28;20694;-90
2021/12/16 08:14:47;;;;;;;8.03;5.83;;;12.80;91.30;;;;;;10451589;28;20233;-90
2021/12/16 08:19:50;;;;;;;8.73;5.23;;;12.80;91.80;;;;;;10414851;28;20326;-90
2021/12/16 08:24:52;;;;;;;5.63;3.70;;;12.40;93.10;;;;;;10433724;28;20239;-90
2021/12/16 08:29:55;;;;;;;11.80;7.37;;;12.40;92.50;;;;;;10431795;28;20205;-90
2021/12/16 08:34:58;;;;;;;8.37;5.67;;;12.30;93.40;;;;;;10433299;28;20236;-87
2021/12/16 08:40:03;;;;;;;5.43;4.47;;;12.30;93.40;;;;;;10416786;28;20634;-88
2021/12/16 08:45:09;;;;;;;8.07;3.67;;;12.70;91.90;;;;;;10392247;28;20235;-90
2021/12/16 08:50:14;;;;;;;7.03;5.20;;;12.70;92.30;;;;;;10396239;28;20202;-93
2021/12/16 08:55:17;;;;;;;5.43;4.47;;;12.40;93.10;;;;;;10432468;28;20237;-90
2021/12/16 09:00:27;;;;;;;3.60;3.20;;;12.10;93.60;;;;;;10432334;28;20256;-88
2021/12/16 09:05:32;;;;;;;7.97;5.30;;;12.90;91.70;;;;;;10421522;28;20236;-90
2021/12/16 09:10:37;;;;;;;5.60;3.83;;;13.00;91.90;;;;;;10427816;28;20289;-91
2021/12/16 09:15:47;;;;;;;4.93;3.80;;;12.70;92.00;;;;;;10430615;28;20232;-90
2021/12/16 09:20:52;;;;;;;12.77;7.13;;;13.10;91.30;;;;;;10406315;28;20304;-91
2021/12/16 09:25:55;;;;;;;4.90;3.90;;;10.90;98.90;;;;;;10423891;28;20219;-90
2021/12/16 09:30:58;;;;;;;4.47;3.43;;;12.40;94.10;;;;;;10424132;28;20231;-90
2021/12/16 09:36:00;;;;;;;5.77;4.63;;;12.90;92.30;;;;;;10391994;28;20210;-90
2021/12/16 09:41:04;;;;;;;9.13;5.30;;;13.30;91.20;;;;;;10412544;28;20751;-91
2021/12/16 09:46:10;;;;;;;3.93;3.13;;;12.70;92.50;;;;;;10414735;28;20598;-90
2021/12/16 09:51:20;;;;;;;6.60;3.77;;;13.10;91.30;;;;;;10418729;28;20675;-90
2021/12/16 09:56:27;;;;;;;7.93;5.20;;;13.30;91.10;;;;;;10421174;28;20229;-90
2021/12/16 10:01:30;;;;;;;4.40;3.93;;;13.00;92.00;;;;;;10387814;28;20299;-90
2021/12/16 10:06:36;;;;;;;4.10;3.37;;;13.20;91.30;;;;;;10373806;28;20242;-88
2021/12/16 10:11:43;;;;;;;3.90;3.47;;;13.40;90.60;;;;;;10390206;28;20664;-88
2021/12/16 10:22:29;;;;;;;4.37;3.07;;;13.40;90.30;;;;;;10414922;28;20282;-88
2021/12/16 10:27:31;;;;;;;5.33;3.97;;;12.70;92.10;;;;;;10391152;28;20245;-88
2021/12/16 10:32:44;;;;;;;7.63;4.53;;;12.30;93.40;;;;;;10406956;28;20240;-89
2021/12/16 10:38:00;;;;;;;17.80;7.87;;;11.80;95.60;;;;;;10397192;28;20274;-88
2021/12/16 10:43:07;;;;;;;3.57;3.27;;;10.50;99.90;;;;;;10414773;28;20672;-90
2021/12/16 10:48:12;;;;;;;12.57;6.53;;;12.30;94.80;;;;;;10415447;28;20223;-90
2021/12/16 10:53:15;;;;;;;3.93;3.47;;;10.80;99.90;;;;;;10402122;28;20258;-90
2021/12/16 10:58:17;;;;;;;6.83;3.73;;;11.40;97.60;;;;;;10423817;28;20236;-90
2021/12/16 11:03:43;;;;;;;11.63;6.20;;;12.20;95.20;;;;;;10393305;28;20725;-90
2021/12/16 11:08:46;;;;;;;5.37;3.43;;;11.80;96.40;;;;;;10401618;28;20709;-91
2021/12/16 11:13:48;;;;;;;7.57;4.40;;;12.40;94.40;;;;;;10426251;28;20232;-90
2021/12/16 11:18:51;;;;;;;4.17;3.40;;;11.60;95.70;;;;;;10397907;28;20694;-90
2021/12/16 11:23:54;;;;;;;6.60;4.10;;;11.70;96.10;;;;;;10426958;28;20255;-89
2021/12/16 11:28:57;;;;;;;3.67;2.70;;;10.90;99.00;;;;;;10423822;28;20239;-90
2021/12/16 11:34:03;;;;;;;3.73;2.93;;;11.30;98.40;;;;;;10413311;28;20239;-90
2021/12/16 11:39:15;;;;;;;5.00;3.40;;;12.00;95.90;;;;;;10415807;28;20613;-90
2021/12/16 11:44:32;;;;;;;26.77;10.57;;;11.90;95.20;;;;;;10431197;28;20236;-90
2021/12/16 11:49:36;;;;;;;3.97;3.47;;;12.00;95.10;;;;;;10412280;28;20244;-90
2021/12/16 11:54:44;;;;;;;5.43;3.73;;;12.00;95.60;;;;;;10430506;28;20702;-90
2021/12/16 12:00:15;;;;;;;2.90;2.57;;;12.70;93.50;;;;;;10412361;28;20279;-90
2021/12/16 12:05:32;;;;;;;3.57;2.30;;;12.50;93.30;;;;;;10418288;28;20230;-90
2021/12/16 12:10:49;;;;;;;6.33;3.33;;;11.70;94.90;;;;;;10418221;28;20258;-89
2021/12/16 12:16:12;;;;;;;4.97;2.67;;;11.10;97.00;;;;;;10399381;28;20319;-90
2021/12/16 12:21:36;;;;;;;3.43;2.10;;;10.80;97.80;;;;;;10403563;28;20263;-90
2021/12/16 12:26:56;;;;;;;6.07;2.77;;;11.40;95.70;;;;;;10425649;28;20292;-90
2021/12/16 12:32:02;;;;;;;3.93;2.50;;;11.10;95.90;;;;;;10447357;28;20668;-90
2021/12/16 12:37:09;;;;;;;2.93;2.30;;;11.50;96.20;;;;;;10416238;28;20238;-90
2021/12/16 12:42:13;;;;;;;2.90;2.37;;;11.40;95.40;;;;;;10413566;28;20664;-89
2021/12/16 12:47:26;;;;;;;3.67;2.17;;;12.40;93.80;;;;;;10417857;28;20273;-90
2021/12/16 12:52:31;;;;;;;3.33;2.40;;;12.00;93.60;;;;;;10391415;28;20245;-90
2021/12/16 12:57:35;;;;;;;4.50;2.10;;;12.40;92.70;;;;;;10411280;28;20251;-91
2021/12/16 13:02:40;;;;;;;3.47;1.80;;;12.80;92.10;;;;;;10407870;28;20276;-90
2021/12/16 13:07:53;;;;;;;3.20;2.33;;;12.60;91.10;;;;;;10410442;28;20234;-90
2021/12/16 13:29:40;;;;;;;5.40;2.23;;;12.50;91.30;;;;;;10406610;28;20238;-90
2021/12/16 13:35:04;;;;;;;3.00;2.57;;;11.80;91.30;;;;;;10410195;28;20289;-90
2021/12/16 13:40:39;;;;;;;4.17;2.43;;;12.10;92.50;;;;;;10397753;28;20297;-90
2021/12/16 14:03:09;;;;;;;4.27;2.40;;;13.00;90.90;;;;;;10214844;29;20253;-90
2021/12/16 14:08:28;;;;;;;4.10;2.67;;;12.60;90.80;;;;;;10201395;29;20299;-89
2021/12/16 14:24:45;;;;;;;3.53;2.60;;;12.80;90.70;;;;;;10421822;28;20302;-91
2021/12/16 14:35:25;;;;;;;3.90;2.70;;;12.70;90.30;;;;;;10452879;28;20278;-92
2021/12/16 14:40:52;;;;;;;2.83;2.37;;;13.20;89.60;;;;;;10415822;28;20228;-92
2021/12/16 14:46:01;;;;;;;6.50;2.90;;;13.20;89.30;;;;;;10444563;28;20187;-91
2021/12/16 14:51:08;;;;;;;3.87;3.00;;;13.00;89.20;;;;;;10423004;28;20232;-91
2021/12/16 14:56:13;;;;;;;5.33;2.83;;;13.20;89.00;;;;;;10420701;28;20202;-91
2021/12/16 15:01:21;;;;;;;4.03;2.43;;;13.10;86.40;;;;;;10436441;28;20209;-91
2021/12/16 15:06:41;;;;;;;4.33;2.67;;;12.70;89.20;;;;;;10446364;28;20269;-91
2021/12/16 15:12:28;;;;;;;4.00;2.50;;;13.20;88.70;;;;;;10422413;28;20264;-90
2021/12/16 15:31:39;;;;;;;3.53;1.80;;;13.40;88.10;;;;;;10445831;28;20258;-91
2021/12/16 15:38:59;;;;;;;4.07;2.90;;;13.20;86.90;;;;;;10394746;28;20207;-91
2021/12/16 15:44:11;;;;;;;4.80;2.97;;;13.20;87.90;;;;;;10412867;28;20220;-91
2021/12/16 15:49:13;;;;;;;3.77;2.67;;;13.30;87.60;;;;;;9710905;28;9999993;-90
2021/12/16 15:54:18;;;;;;;3.73;2.70;;;13.30;87.40;;;;;;10401825;28;20227;-91
2021/12/16 15:59:22;;;;;;;4.63;3.17;;;13.20;87.80;;;;;;10404862;28;20236;-90
2021/12/16 16:04:28;;;;;;;4.63;2.90;;;13.00;88.60;;;;;;10372700;28;20314;-90
2021/12/16 16:09:38;;;;;;;4.87;3.30;;;13.20;87.70;;;;;;10402281;28;20246;-90
2021/12/16 16:14:44;;;;;;;5.17;3.37;;;13.40;87.30;;;;;;10426731;28;20256;-91
2021/12/16 16:19:50;;;;;;;4.33;3.27;;;13.40;87.10;;;;;;10433517;28;20706;-92
2021/12/16 16:24:54;;;;;;;5.30;3.20;;;13.50;86.70;;;;;;10400415;28;20304;-89
2021/12/16 16:29:59;;;;;;;4.20;3.10;;;13.60;86.20;;;;;;10414081;28;20214;-90
2021/12/16 16:35:01;;;;;;;3.83;2.93;;;13.60;85.80;;;;;;10412629;28;20282;-89
2021/12/16 16:40:08;;;;;;;6.57;3.67;;;13.60;85.80;;;;;;10420603;28;20197;-88
2021/12/16 16:45:19;;;;;;;4.20;3.27;;;13.60;85.80;;;;;;10410172;28;20207;-90
2021/12/16 16:50:24;;;;;;;5.23;3.43;;;13.50;85.80;;;;;;10420486;28;20200;-90
2021/12/16 16:55:34;;;;;;;5.37;3.67;;;13.60;85.70;;;;;;10445871;28;20202;-89
2021/12/16 17:00:43;;;;;;;4.93;3.37;;;13.60;85.40;;;;;;10441672;28;20221;-89
2021/12/16 17:05:59;;;;;;;4.93;3.17;;;13.50;85.50;;;;;;10443862;28;20200;-90
2021/12/16 17:11:13;;;;;;;4.00;3.00;;;13.60;85.20;;;;;;10465137;28;20238;-89
2021/12/16 17:21:54;;;;;;;5.53;4.10;;;13.50;85.30;;;;;;10419297;28;20219;-89
2021/12/16 17:27:00;;;;;;;6.67;4.37;;;13.30;85.70;;;;;;10412085;28;20200;-89
2021/12/16 17:32:13;;;;;;;4.77;3.83;;;13.20;86.30;;;;;;10428135;28;20252;-90
2021/12/16 17:37:21;;;;;;;5.77;3.70;;;13.30;86.00;;;;;;10407184;28;20406;-89
2021/12/16 17:42:37;;;;;;;5.57;3.33;;;13.40;85.70;;;;;;10399459;28;20612;-89
2021/12/16 17:47:40;;;;;;;6.93;3.70;;;13.20;86.20;;;;;;10418384;28;20607;-89
2021/12/16 17:52:48;;;;;;;6.17;4.20;;;13.30;85.60;;;;;;10446482;28;20294;-90
2021/12/16 17:57:58;;;;;;;8.97;3.83;;;13.40;85.50;;;;;;10461989;28;20260;-89
2021/12/16 18:03:03;;;;;;;7.57;3.93;;;13.40;83.70;;;;;;10427633;28;20306;-89
2021/12/16 18:08:06;;;;;;;4.77;2.90;;;12.30;89.50;;;;;;10488735;28;20221;-90
2021/12/16 18:13:09;;;;;;;4.93;3.37;;;12.80;87.70;;;;;;10494527;28;20288;-89
2021/12/16 18:18:16;;;;;;;5.53;4.13;;;12.90;85.50;;;;;;10494315;28;20258;-87
2021/12/16 18:23:27;;;;;;;10.73;5.10;;;13.00;86.90;;;;;;10461396;28;20225;-89
2021/12/16 18:28:34;;;;;;;9.50;4.40;;;12.60;86.40;;;;;;10444123;28;20207;-88
2021/12/16 18:33:47;;;;;;;7.43;4.27;;;11.80;86.40;;;;;;10455053;28;20242;-89
2021/12/16 18:38:56;;;;;;;8.07;4.20;;;11.90;91.30;;;;;;10444422;28;20199;-88
2021/12/16 18:43:59;;;;;;;7.63;3.70;;;11.70;91.20;;;;;;10458482;28;20268;-88
2021/12/16 18:49:10;;;;;;;10.87;4.03;;;9.70;93.10;;;;;;10435911;28;20239;-88
2021/12/16 18:54:29;;;;;;;6.03;4.00;;;9.80;94.30;;;;;;10451998;28;20235;-89
2021/12/16 18:59:33;;;;;;;12.60;3.60;;;10.20;96.80;;;;;;10435572;28;20234;-89
2021/12/16 19:04:40;;;;;;;15.23;4.77;;;10.40;95.60;;;;;;10430281;28;20304;-89
2021/12/16 19:09:46;;;;;;;7.60;4.30;;;9.60;92.40;;;;;;10416425;28;20234;-89
2021/12/16 19:15:00;;;;;;;8.03;3.67;;;9.40;98.80;;;;;;10431885;28;20687;-88
2021/12/16 19:20:08;;;;;;;7.43;4.07;;;10.80;95.80;;;;;;10384210;28;20240;-89
2021/12/16 19:25:11;;;;;;;9.23;4.30;;;12.20;92.00;;;;;;10358560;28;20318;-90
2021/12/16 19:30:20;;;;;;;15.67;6.13;;;11.10;92.80;;;;;;10377856;28;20904;-88
2021/12/16 19:35:22;;;;;;;10.23;5.00;;;11.50;88.50;;;;;;10367865;28;20236;-88
2021/12/16 19:40:29;;;;;;;7.77;3.97;;;10.40;93.50;;;;;;10359290;28;20224;-88
2021/12/16 19:45:34;;;;;;;15.77;7.37;;;11.50;91.10;;;;;;10361366;28;20326;-90
2021/12/16 19:50:41;;;;;;;10.00;4.60;;;11.30;88.00;;;;;;10354989;28;20212;-91
2021/12/16 19:55:44;;;;;;;9.80;4.00;;;11.70;92.90;;;;;;10365513;28;20236;-90
2021/12/16 20:00:53;;;;;;;6.73;4.73;;;11.50;93.90;;;;;;10367156;28;20289;-90
2021/12/16 20:05:58;;;;;;;26.00;10.47;;;9.90;98.90;;;;;;10360471;28;20252;-90
2021/12/16 20:11:02;;;;;;;8.43;5.00;;;11.10;90.00;;;;;;10348737;28;20250;-90
2021/12/16 20:16:11;;;;;;;8.33;4.37;;;10.20;95.90;;;;;;10363970;28;20251;-90
2021/12/16 20:21:19;;;;;;;7.40;3.80;;;11.00;93.50;;;;;;10438027;28;20247;-90
2021/12/16 20:26:30;;;;;;;7.47;3.97;;;11.80;92.00;;;;;;10404226;28;20219;-89
2021/12/16 20:31:37;;;;;;;37.40;11.17;;;12.80;90.00;;;;;;10410739;28;20220;-90
2021/12/16 20:36:48;;;;;;;25.20;9.40;;;12.10;84.20;;;;;;10410954;28;20204;-91
2021/12/16 20:41:57;;;;;;;9.37;4.77;;;12.40;84.10;;;;;;10399926;28;20661;-90
2021/12/16 20:47:03;;;;;;;7.93;4.70;;;12.50;89.40;;;;;;10450449;28;20197;-90
2021/12/16 20:52:14;;;;;;;23.03;8.40;;;12.00;91.30;;;;;;10421641;28;20673;-91
2021/12/16 20:57:18;;;;;;;9.50;4.23;;;10.00;92.70;;;;;;10417143;28;20262;-89
2021/12/16 21:02:29;;;;;;;20.40;7.10;;;10.60;92.70;;;;;;10417270;28;20253;-90
2021/12/16 21:07:32;;;;;;;11.53;4.67;;;11.30;88.20;;;;;;10430671;28;20203;-91
2021/12/16 21:12:35;;;;;;;9.57;3.80;;;12.10;91.30;;;;;;10436232;28;21020;-89
2021/12/16 21:17:39;;;;;;;6.77;4.47;;;12.40;89.40;;;;;;10431414;28;20660;-90
2021/12/16 21:22:41;;;;;;;6.90;3.70;;;12.50;87.70;;;;;;10437809;28;20256;-89
2021/12/16 21:27:44;;;;;;;8.20;3.93;;;12.00;90.40;;;;;;10463021;28;20214;-90
2021/12/16 21:32:47;;;;;;;19.10;7.40;;;12.30;90.20;;;;;;10426735;28;20660;-90
2021/12/16 21:38:04;;;;;;;10.37;4.70;;;11.50;83.40;;;;;;10420766;28;20207;-86
2021/12/16 21:43:09;;;;;;;9.10;4.20;;;12.20;90.10;;;;;;10415108;28;20304;-88
2021/12/16 21:48:12;;;;;;;13.80;5.43;;;10.60;91.70;;;;;;10427563;28;20192;-90
2021/12/16 21:53:17;;;;;;;15.63;5.43;;;10.80;91.10;;;;;;10425877;28;20203;-89
2021/12/16 21:58:24;;;;;;;9.33;4.07;;;11.80;90.20;;;;;;10422580;28;20256;-89
2021/12/16 22:03:30;;;;;;;7.33;4.70;;;12.10;90.30;;;;;;10426727;28;20278;-89
2021/12/16 22:08:33;;;;;;;6.80;4.07;;;12.40;88.30;;;;;;10438026;28;20195;-89
2021/12/16 22:13:38;;;;;;;5.90;3.97;;;12.70;88.30;;;;;;10448214;28;20222;-92
2021/12/16 22:18:43;;;;;;;6.17;3.47;;;13.00;87.40;;;;;;10448475;28;20283;-90
2021/12/16 22:23:47;;;;;;;5.80;3.37;;;12.70;86.90;;;;;;10422640;28;20257;-89
2021/12/16 22:28:51;;;;;;;8.57;4.27;;;13.30;85.80;;;;;;10413749;28;20346;-89
2021/12/16 22:33:55;;;;;;;10.80;4.63;;;13.30;84.30;;;;;;10431504;28;20231;-89
2021/12/16 22:38:57;;;;;;;9.50;4.37;;;13.20;84.70;;;;;;10435339;28;20215;-89
2021/12/16 22:44:00;;;;;;;10.17;3.70;;;13.20;84.90;;;;;;10432741;28;20268;-90
2021/12/16 22:49:04;;;;;;;7.60;3.73;;;13.20;83.80;;;;;;10420771;28;20276;-90
2021/12/16 22:54:07;;;;;;;6.93;3.87;;;13.20;84.60;;;;;;10397989;28;20302;-90
2021/12/16 22:59:10;;;;;;;8.73;3.67;;;13.40;83.90;;;;;;10401798;28;20665;-89
2021/12/16 23:04:17;;;;;;;6.13;3.07;;;13.20;84.10;;;;;;10436417;28;20255;-89
2021/12/16 23:09:20;;;;;;;6.53;4.03;;;13.30;83.80;;;;;;10418400;28;20233;-89
2021/12/16 23:14:23;;;;;;;7.93;3.60;;;13.20;83.90;;;;;;10436668;28;20239;-90
2021/12/16 23:25:12;;;;;;;8.20;4.27;;;13.20;83.50;;;;;;10447771;28;20266;-90
2021/12/16 23:30:15;;;;;;;6.77;3.87;;;13.40;83.10;;;;;;10433438;28;20252;-89
2021/12/16 23:35:17;;;;;;;9.03;3.90;;;13.20;83.10;;;;;;10430997;28;20285;-90
2021/12/16 23:40:23;;;;;;;4.57;3.17;;;13.30;82.80;;;;;;10419619;28;20244;-90
2021/12/16 23:45:49;;;;;;;7.30;3.80;;;13.00;83.80;;;;;;10410996;28;20671;-90
2021/12/16 23:56:12;;;;;;;20.10;5.30;;;12.70;84.50;;;;;;10406505;28;20286;-90
